Flag for New Zealand

Past Weather in 43°31'51.4"S, 172°38'11.9"E, New Zealand — Yesterday and Last 2 Weeks

Currently: 59 °F. Partly sunny. (Weather station: Christchurch Airport, New Zealand). See more current weather

Past Weather in 43°31'51.4"S, 172°38'11.9"E — Graph

°F

43°31'51.4"S, 172°38'11.9"E Temperature Yesterday

Maximum temperature yesterday: 63 °F (at 4:30 pm)
Minimum temperature yesterday: 55 °F (at 9:00 pm)
Average temperature yesterday: 59 °F

High & Low Weather Summary for the Past Weeks

 TemperatureHumidityPressure
High84 °F (Feb 14, 5:00 pm)100% (Feb 18, 3:00 am)30.36 "Hg (Feb 18, 3:00 am)
Low43 °F (Feb 21, 4:00 am)19% (Feb 14, 5:30 pm)29.45 "Hg (Feb 24, 8:00 pm)
Average61 °F74%29.98 "Hg
* Reported Feb 14 5:00 pm — Feb 29 5:30 pm, 43°31'51.4"S, 172°38'11.9"E. Weather by CustomWeather, © 2024

Note: Actual official high and low records may vary slightly from our data, if they occured in-between our weather recording intervals... More about our weather records

43°31'51.4"S, 172°38'11.9"E Weather History for the Previous 24 Hours

Scroll right to see more
 ConditionsComfort  
Time TempWeatherWind HumidityBarometerVisibility
5:30 pm
Thu, Feb 29
63 °FScattered clouds.14 mph68%30.09 "HgN/A
5:00 pm64 °FPassing clouds.15 mph64%30.09 "HgN/A
4:30 pm66 °FMild.14 mph60%30.09 "HgN/A
4:00 pm66 °FMild.14 mph60%30.09 "HgN/A
3:30 pm66 °FMild.12 mph60%30.12 "HgN/A
2:30 pm66 °FMild.6 mph60%30.12 "HgN/A
2:00 pm64 °FScattered clouds.5 mph64%30.12 "HgN/A
1:30 pm63 °FPartly sunny.3 mph68%30.15 "HgN/A
1:00 pm61 °FOvercast.3 mph72%30.15 "HgN/A
12:30 pm61 °FOvercast.1 mph72%30.15 "HgN/A
12:00 pm59 °FOvercast.2 mph77%30.15 "HgN/A
11:30 am59 °FOvercast.3 mph77%30.18 "HgN/A
11:00 am57 °FOvercast.1 mph88%30.18 "HgN/A
10:30 am57 °FMore clouds than sun.1 mph88%30.18 "HgN/A
10:00 am57 °FLow clouds.1 mph88%30.18 "HgN/A
9:30 am55 °FLow clouds.3 mph94%30.18 "Hg6 mi
9:00 am55 °FOvercast.3 mph88%30.18 "HgN/A
8:30 am55 °FOvercast.3 mph88%30.18 "HgN/A
8:00 am55 °FPartly sunny.3 mph88%30.18 "HgN/A
7:30 am54 °FMore clouds than sun.3 mph94%30.15 "HgN/A
7:00 am54 °FOvercast.5 mph94%30.15 "HgN/A
6:30 am54 °FOvercast.3 mph88%30.15 "HgN/A
6:00 am55 °FOvercast.8 mph82%30.15 "HgN/A
5:30 am54 °FOvercast.8 mph94%30.15 "HgN/A
5:00 am55 °FOvercast.8 mph88%30.15 "HgN/A
4:30 am55 °FOvercast.7 mph88%30.15 "HgN/A
4:00 am54 °FOvercast.8 mph94%30.12 "HgN/A
3:30 am54 °FLow clouds.7 mph100%30.15 "HgN/A
2:30 am55 °FOvercast.8 mph88%30.15 "HgN/A
2:00 am55 °FOvercast.8 mph94%30.15 "HgN/A
1:30 am55 °FMostly cloudy.7 mph94%30.15 "Hg3 mi
1:00 am55 °FOvercast.8 mph94%30.15 "HgN/A
12:30 am55 °FOvercast.8 mph94%30.15 "HgN/A
12:00 am55 °FOvercast.8 mph94%30.15 "HgN/A
11:30 pm
Wed, Feb 28
55 °FOvercast.7 mph88%30.15 "HgN/A
11:00 pm55 °FOvercast.9 mph88%30.15 "HgN/A
10:30 pm55 °FPassing clouds.10 mph88%30.12 "HgN/A
10:00 pm55 °FPassing clouds.12 mph88%30.12 "HgN/A
9:30 pm55 °FPassing clouds.13 mph88%30.12 "HgN/A
9:00 pm55 °FPassing clouds.12 mph88%30.09 "HgN/A
8:30 pm57 °FPassing clouds.13 mph82%30.09 "HgN/A
8:00 pm59 °FPassing clouds.10 mph77%30.07 "HgN/A
7:30 pm59 °FCool.12 mph77%30.07 "HgN/A
7:00 pm61 °FScattered clouds.12 mph77%30.07 "HgN/A
Weather by CustomWeather, © 2024

See weather overview